X  CloseMetar Aviation Weather Data     EKSB Sønderborg

Temperature

18°C Temperature

16°C Dewpoint

88% Humidity



Wind

19 KM/H

12 MPH

 5 M/S

10 KTS



250°
West South
West
Current Conditions

Mostly Cloudy Mostly Cloudy
Pressure 1011.92 (hPa) - 29.88 (in)
Visibility 0 (mi) - 0 (km)
Airport
Airport-code EKSB

Location Sønderborg 40 (km)

Metar:
EKSB 210650Z AUTO 25010G20KT 210V280 9999NDV BKN011/// 18/16 Q1012

Time: 21-07-2019 08:50